Tetide — IVTN — position and weather

sailwx.info

Track history (hours):
 
Tides and Currents Weather Stations Pressure Air Temp Water Temp Dewpoint Dewpoint Depression Visibility Wind Speed Wind Dir Waves Ship Positions

Tetide

Last reported at 2015-Mar-04 15:24 UTC. Time now 2015-Mar-04 22:52 UTC.
Position N 41°07' E 013°35'.

Length 70 m; draft 3.6 m.

Type: Passenger vessel. MMSI: 247043100.

Date/timePositionNaut miles runAvg speedWind from/ knotsBaromVisibWave heightAir tempDewpointWater temp
2015-Mar-04 15:24N 41°07' E 013°35'1314.7
2015-Mar-04 14:33N 40°55' E 013°29'8 1.8
2015-Mar-04 10:23N 40°48' E 013°26'1314.2
2015-Mar-04 09:28N 41°01' E 013°29'1513.6
2015-Mar-04 08:20N 41°15' E 013°37'0 0.0
2015-Mar-03 17:17N 41°15' E 013°37'0 0.0
2015-Mar-03 16:33N 41°15' E 013°37'10 8.0
2015-Mar-03 15:21N 41°06' E 013°34'1114.3
2015-Mar-03 14:33N 40°55' E 013°29'7 2.4
2015-Mar-03 11:30N 40°48' E 013°26'0 0.2
2015-Mar-03 10:32N 40°48' E 013°26'1313.1
2015-Mar-03 09:31N 41°01' E 013°30'15 7.0
2015-Mar-03 07:22N 41°15' E 013°37'1311.2
2015-Mar-03 06:12N 41°06' E 013°25'1114.5
2015-Mar-03 05:29N 41°01' E 013°13'23 1.8
2015-Mar-02 16:33N 41°15' E 013°37'6 6.4
2015-Mar-02 15:33N 41°09' E 013°35'1514.5
2015-Mar-02 14:32N 40°55' E 013°29'8 1.8
2015-Mar-02 10:23N 40°48' E 013°26'1313.9
2015-Mar-02 09:28N 41°00' E 013°31'16 1.0
2015-Mar-01 17:32N 41°15' E 013°37'1613.9
2015-Mar-01 16:25N 40°60' E 013°32'1314.2
2015-Mar-01 15:30N 40°48' E 013°26'0 0.0
2015-Mar-01 11:05N 40°48' E 013°26'913.6
2015-Mar-01 10:25N 40°57' E 013°29'10 3.1
2015-Mar-01 07:09N 41°02' E 013°18'14 0.9
2015-Feb-28 15:25N 41°08' E 013°35'1314.6
2015-Feb-28 14:33N 40°56' E 013°29'3 0.6
2015-Feb-28 09:31N 40°59' E 013°30'1714.7
2015-Feb-28 08:22N 41°15' E 013°37'1 0.7
2015-Feb-28 07:28N 41°15' E 013°37'0 0.0
2015-Feb-28 00:30N 41°15' E 013°37'10 1.0
2015-Feb-27 15:19N 41°06' E 013°34'1214.6
2015-Feb-27 14:30N 40°55' E 013°29'7 1.8
2015-Feb-27 10:30N 40°48' E 013°26'1313.9
2015-Feb-27 09:32N 41°01' E 013°31'1510.9
2015-Feb-27 08:09N 41°15' E 013°37'0 0.0
2015-Feb-27 07:32N 41°15' E 013°37'0 0.0
2015-Feb-26 16:27N 41°15' E 013°37'6 7.1
2015-Feb-26 15:32N 41°09' E 013°35'1514.6
2015-Feb-26 14:32N 40°55' E 013°29'7 1.8
2015-Feb-26 10:22N 40°48' E 013°26'1213.8
2015-Feb-26 09:30N 40°60' E 013°30'1414.5
2015-Feb-26 08:30N 41°13' E 013°37'2 0.3
2015-Feb-26 00:23N 41°15' E 013°37'0 0.0
2015-Feb-25 23:10N 41°15' E 013°37'0 0.0
2015-Feb-25 22:17N 41°15' E 013°37'8 1.2
2015-Feb-25 15:25N 41°07' E 013°35'1214.5
2015-Feb-25 14:33N 40°55' E 013°29'8 1.9
2015-Feb-25 10:26N 40°48' E 013°26'1213.0
2015-Feb-25 09:33N 40°59' E 013°30'8 0.4
2015-Feb-24 15:23N 41°07' E 013°34'1214.1
2015-Feb-24 14:33N 40°56' E 013°29'8 5.9
2015-Feb-24 13:12N 40°48' E 013°26'0 0.0
2015-Feb-24 11:14N 40°48' E 013°26'0 0.3
2015-Feb-24 10:24N 40°48' E 013°26'1313.9
2015-Feb-24 09:28N 41°01' E 013°31'15 1.1
2015-Feb-23 19:27N 41°15' E 013°37'10 2.5
2015-Feb-23 15:18N 41°05' E 013°34'1114.4
2015-Feb-23 14:33N 40°55' E 013°29'7 1.7
2015-Feb-23 10:16N 40°48' E 013°26'1114.5
2015-Feb-23 09:31N 40°59' E 013°29'17 7.6
2015-Feb-23 07:14N 41°15' E 013°37'911.3
2015-Feb-23 06:26N 41°08' E 013°29'  
Track history (hours):
 
Tides and Currents Weather Stations Pressure Air Temp Water Temp Dewpoint Dewpoint Depression Visibility Wind Speed Wind Dir Waves Ship Positions

Tetide

Last reported at 2015-Mar-04 15:24 UTC. Time now 2015-Mar-04 22:52 UTC.
Position N 41°07' E 013°35'.

Length 70 m; draft 3.6 m.

Type: Passenger vessel. MMSI: 247043100.

Date/timePositionNaut miles runAvg speedWind from/ knotsBaromVisibWave heightAir tempDewpointWater temp
2015-Mar-04 15:24N 41°07' E 013°35'1314.7
2015-Mar-04 14:33N 40°55' E 013°29'8 1.8
2015-Mar-04 10:23N 40°48' E 013°26'1314.2
2015-Mar-04 09:28N 41°01' E 013°29'1513.6
2015-Mar-04 08:20N 41°15' E 013°37'0 0.0
2015-Mar-03 17:17N 41°15' E 013°37'0 0.0
2015-Mar-03 16:33N 41°15' E 013°37'10 8.0
2015-Mar-03 15:21N 41°06' E 013°34'1114.3
2015-Mar-03 14:33N 40°55' E 013°29'7 2.4
2015-Mar-03 11:30N 40°48' E 013°26'0 0.2
2015-Mar-03 10:32N 40°48' E 013°26'1313.1
2015-Mar-03 09:31N 41°01' E 013°30'15 7.0
2015-Mar-03 07:22N 41°15' E 013°37'1311.2
2015-Mar-03 06:12N 41°06' E 013°25'1114.5
2015-Mar-03 05:29N 41°01' E 013°13'23 1.8
2015-Mar-02 16:33N 41°15' E 013°37'6 6.4
2015-Mar-02 15:33N 41°09' E 013°35'1514.5
2015-Mar-02 14:32N 40°55' E 013°29'8 1.8
2015-Mar-02 10:23N 40°48' E 013°26'1313.9
2015-Mar-02 09:28N 41°00' E 013°31'16 1.0
2015-Mar-01 17:32N 41°15' E 013°37'1613.9
2015-Mar-01 16:25N 40°60' E 013°32'1314.2
2015-Mar-01 15:30N 40°48' E 013°26'0 0.0
2015-Mar-01 11:05N 40°48' E 013°26'913.6
2015-Mar-01 10:25N 40°57' E 013°29'10 3.1
2015-Mar-01 07:09N 41°02' E 013°18'14 0.9
2015-Feb-28 15:25N 41°08' E 013°35'1314.6
2015-Feb-28 14:33N 40°56' E 013°29'3 0.6
2015-Feb-28 09:31N 40°59' E 013°30'1714.7
2015-Feb-28 08:22N 41°15' E 013°37'1 0.7
2015-Feb-28 07:28N 41°15' E 013°37'0 0.0
2015-Feb-28 00:30N 41°15' E 013°37'10 1.0
2015-Feb-27 15:19N 41°06' E 013°34'1214.6
2015-Feb-27 14:30N 40°55' E 013°29'7 1.8
2015-Feb-27 10:30N 40°48' E 013°26'1313.9
2015-Feb-27 09:32N 41°01' E 013°31'1510.9
2015-Feb-27 08:09N 41°15' E 013°37'0 0.0
2015-Feb-27 07:32N 41°15' E 013°37'0 0.0
2015-Feb-26 16:27N 41°15' E 013°37'6 7.1
2015-Feb-26 15:32N 41°09' E 013°35'1514.6
2015-Feb-26 14:32N 40°55' E 013°29'7 1.8
2015-Feb-26 10:22N 40°48' E 013°26'1213.8
2015-Feb-26 09:30N 40°60' E 013°30'1414.5
2015-Feb-26 08:30N 41°13' E 013°37'2 0.3
2015-Feb-26 00:23N 41°15' E 013°37'0 0.0
2015-Feb-25 23:10N 41°15' E 013°37'0 0.0
2015-Feb-25 22:17N 41°15' E 013°37'8 1.2
2015-Feb-25 15:25N 41°07' E 013°35'1214.5
2015-Feb-25 14:33N 40°55' E 013°29'8 1.9
2015-Feb-25 10:26N 40°48' E 013°26'1213.0
2015-Feb-25 09:33N 40°59' E 013°30'8 0.4
2015-Feb-24 15:23N 41°07' E 013°34'1214.1
2015-Feb-24 14:33N 40°56' E 013°29'8 5.9
2015-Feb-24 13:12N 40°48' E 013°26'0 0.0
2015-Feb-24 11:14N 40°48' E 013°26'0 0.3
2015-Feb-24 10:24N 40°48' E 013°26'1313.9
2015-Feb-24 09:28N 41°01' E 013°31'15 1.1
2015-Feb-23 19:27N 41°15' E 013°37'10 2.5
2015-Feb-23 15:18N 41°05' E 013°34'1114.4
2015-Feb-23 14:33N 40°55' E 013°29'7 1.7
2015-Feb-23 10:16N 40°48' E 013°26'1114.5
2015-Feb-23 09:31N 40°59' E 013°29'17 7.6
2015-Feb-23 07:14N 41°15' E 013°37'911.3
2015-Feb-23 06:26N 41°08' E 013°29'  

Dump ship's entire track history